Accueil
METAR-TAF:

METAR-TAF

Aéroports :

Larnaca, Chypre

Aéroport international de Larnaca

latitude: 34-53N, longitude: 033-38E, altitude: 2 m

Observation

Le bulletin a été fait il y a 15 minutes, à 16:30 UTC
Vent 9 kt de sud-ouest
Température 29°C
Humidité 62%
Pression 1006 hPa
Visibilité 10 km ou plus
Quelques nuages à une hauteur de 5000 ft

METAR: LCLK 221630Z 22009KT 9999 FEW050 29/21 Q1006 NOSIG

Heure: 19:45 (16:45 UTC)

Prévision

Le bulletin a été fait il y a 5 heures et 15 minutes, à 11:30 UTC
Prévision valable du 22 à 12 UTC au 23 à 12 UTC
Vent 20 kt de sud/sud-ouest
Visibilité 10 km ou plus
Quelques nuages à une hauteur de 2500 ft
Evoluant progressivement
du 22 à 17 UTC au 22 à 20 UTC
Vent 8 kt de ouest/nord-ouest
Evoluant progressivement
du 23 à 08 UTC au 23 à 12 UTC
Vent 15 kt de sud

TAF: LCLK 221130Z 2212/2312 21020KT 9999 FEW025 BECMG 2217/2220 30008KT BECMG 2308/2312 19015KT

Observations et prévisions météorologiques de plus de 4000 aéroports (messages METAR et TAF).

Les stations disponibles sont représentées par des disques jaunes et rouges sur la carte.

Passer la souris dessus pour voir le nom de la station.

Cliquer dessus pour voir les observations et prévisions météorologiques.

Pour changer de carte: cliquez sur les boutons verts avec une croix noire pour zoomer, sur le bouton vert avec un tiret pour effectuer un zoom arrière, ou sur les flèches vertes pour les cartes adjacentes.


METAR-TAF: